KSFZ/SFZ METAR and TAF weather

Enter ICAO airport designator
Station Type Date Time Source
KSFZ METAR 2021/10/20 06:56 UTC NOAA

KSFZ 200656Z AUTO 25006KT 10SM CLR 11/05 A2984 RMK AO2 SLP112 T01110050 PNO $


Station Type Date Time Source
KSFZ Decoded METAR 2021/10/20 06:56 UTC NOAA

Pawtucket, North Central State Airport, RI, United States (KSFZ) 41-55N 071-30W
Oct 20, 2021 - 02:56 AM EDT / 2021.10.20 0656 UTC
Wind: from the WSW (250 degrees) at 7 MPH (6 KT):0
Visibility: 10 mile(s):0
Sky conditions: clear
Temperature: 52.0 F (11.1 C)
Dew Point: 41.0 F (5.0 C)
Relative Humidity: 66%
Pressure (altimeter): 29.84 in. Hg (1010 hPa)
ob: KSFZ 200656Z AUTO 25006KT 10SM CLR 11/05 A2984 RMK AO2 SLP112 T01110050 PNO
cycle: 7

Station Type Date Time Source
KSFZ TAF UTC NOAA

Error!

Example: see airport list